sensor_id;sensor_type;location;lat;lon;timestamp;P1;durP1;ratioP1;P2;durP2;ratioP2
75698;SDS011;64313;51.018;13.742;2023-07-20T00:00:05;7.13;;;1.63;;
75698;SDS011;64313;51.018;13.742;2023-07-20T00:02:38;5.40;;;1.70;;
75698;SDS011;64313;51.018;13.742;2023-07-20T00:05:03;5.95;;;2.00;;
75698;SDS011;64313;51.018;13.742;2023-07-20T00:07:29;5.70;;;2.15;;
75698;SDS011;64313;51.018;13.742;2023-07-20T00:09:54;4.22;;;1.65;;
75698;SDS011;64313;51.018;13.742;2023-07-20T00:12:19;4.40;;;1.70;;
75698;SDS011;64313;51.018;13.742;2023-07-20T00:14:45;4.85;;;1.80;;
75698;SDS011;64313;51.018;13.742;2023-07-20T00:17:11;4.90;;;1.60;;
75698;SDS011;64313;51.018;13.742;2023-07-20T00:19:38;3.90;;;1.50;;
75698;SDS011;64313;51.018;13.742;2023-07-20T00:22:04;3.80;;;1.40;;
75698;SDS011;64313;51.018;13.742;2023-07-20T00:24:30;4.22;;;1.33;;
75698;SDS011;64313;51.018;13.742;2023-07-20T00:26:56;3.25;;;1.33;;
75698;SDS011;64313;51.018;13.742;2023-07-20T00:29:21;4.88;;;1.42;;
75698;SDS011;64313;51.018;13.742;2023-07-20T00:31:46;4.85;;;1.42;;
75698;SDS011;64313;51.018;13.742;2023-07-20T00:34:12;3.70;;;1.42;;
75698;SDS011;64313;51.018;13.742;2023-07-20T00:36:39;3.90;;;1.40;;
75698;SDS011;64313;51.018;13.742;2023-07-20T00:39:04;3.15;;;1.23;;
75698;SDS011;64313;51.018;13.742;2023-07-20T00:41:30;3.28;;;1.30;;
75698;SDS011;64313;51.018;13.742;2023-07-20T00:43:56;3.88;;;1.40;;
75698;SDS011;64313;51.018;13.742;2023-07-20T00:46:22;3.72;;;1.33;;
75698;SDS011;64313;51.018;13.742;2023-07-20T00:48:51;5.45;;;1.33;;
75698;SDS011;64313;51.018;13.742;2023-07-20T00:51:18;3.75;;;1.20;;
75698;SDS011;64313;51.018;13.742;2023-07-20T00:53:47;3.47;;;1.10;;
75698;SDS011;64313;51.018;13.742;2023-07-20T00:56:14;2.45;;;1.02;;
75698;SDS011;64313;51.018;13.742;2023-07-20T00:58:40;4.90;;;1.10;;
75698;SDS011;64313;51.018;13.742;2023-07-20T01:01:06;3.67;;;1.17;;
75698;SDS011;64313;51.018;13.742;2023-07-20T01:03:31;2.45;;;0.90;;
75698;SDS011;64313;51.018;13.742;2023-07-20T01:06:10;5.72;;;1.10;;
75698;SDS011;64313;51.018;13.742;2023-07-20T01:08:40;2.95;;;1.10;;
75698;SDS011;64313;51.018;13.742;2023-07-20T01:11:14;3.30;;;0.90;;
75698;SDS011;64313;51.018;13.742;2023-07-20T01:13:46;3.50;;;1.08;;
75698;SDS011;64313;51.018;13.742;2023-07-20T01:16:12;3.85;;;1.17;;
75698;SDS011;64313;51.018;13.742;2023-07-20T01:18:37;3.22;;;1.00;;
75698;SDS011;64313;51.018;13.742;2023-07-20T01:21:08;3.35;;;1.00;;
75698;SDS011;64313;51.018;13.742;2023-07-20T01:26:54;4.35;;;1.13;;
75698;SDS011;64313;51.018;13.742;2023-07-20T01:29:44;3.20;;;1.10;;
75698;SDS011;64313;51.018;13.742;2023-07-20T01:32:39;5.65;;;1.20;;
75698;SDS011;64313;51.018;13.742;2023-07-20T01:35:07;2.67;;;1.20;;
75698;SDS011;64313;51.018;13.742;2023-07-20T01:37:38;3.40;;;1.20;;
75698;SDS011;64313;51.018;13.742;2023-07-20T01:40:05;3.97;;;1.10;;
75698;SDS011;64313;51.018;13.742;2023-07-20T01:42:31;4.47;;;1.30;;
75698;SDS011;64313;51.018;13.742;2023-07-20T01:44:57;4.13;;;1.30;;
75698;SDS011;64313;51.018;13.742;2023-07-20T01:47:23;4.85;;;1.48;;
75698;SDS011;64313;51.018;13.742;2023-07-20T01:49:48;4.72;;;1.48;;
75698;SDS011;64313;51.018;13.742;2023-07-20T01:52:13;4.72;;;1.40;;
75698;SDS011;64313;51.018;13.742;2023-07-20T01:54:40;4.80;;;1.50;;
75698;SDS011;64313;51.018;13.742;2023-07-20T01:57:05;3.70;;;1.30;;
75698;SDS011;64313;51.018;13.742;2023-07-20T01:59:31;6.07;;;1.42;;
75698;SDS011;64313;51.018;13.742;2023-07-20T02:01:56;3.47;;;1.30;;
75698;SDS011;64313;51.018;13.742;2023-07-20T02:04:23;3.38;;;1.35;;
75698;SDS011;64313;51.018;13.742;2023-07-20T02:06:48;4.25;;;1.70;;
75698;SDS011;64313;51.018;13.742;2023-07-20T02:09:13;3.88;;;1.45;;
75698;SDS011;64313;51.018;13.742;2023-07-20T02:11:39;6.15;;;1.50;;
75698;SDS011;64313;51.018;13.742;2023-07-20T02:14:05;5.45;;;1.80;;
75698;SDS011;64313;51.018;13.742;2023-07-20T02:16:30;5.22;;;1.52;;
75698;SDS011;64313;51.018;13.742;2023-07-20T02:18:56;5.85;;;1.70;;
75698;SDS011;64313;51.018;13.742;2023-07-20T02:21:22;4.97;;;1.73;;
75698;SDS011;64313;51.018;13.742;2023-07-20T02:23:48;5.50;;;1.70;;
75698;SDS011;64313;51.018;13.742;2023-07-20T02:26:13;4.53;;;1.70;;
75698;SDS011;64313;51.018;13.742;2023-07-20T02:28:39;4.18;;;1.60;;
75698;SDS011;64313;51.018;13.742;2023-07-20T02:31:04;5.15;;;1.80;;
75698;SDS011;64313;51.018;13.742;2023-07-20T02:33:30;4.70;;;1.75;;
75698;SDS011;64313;51.018;13.742;2023-07-20T02:35:55;6.00;;;1.40;;
75698;SDS011;64313;51.018;13.742;2023-07-20T02:38:20;4.53;;;1.95;;
75698;SDS011;64313;51.018;13.742;2023-07-20T02:40:46;5.00;;;1.60;;
75698;SDS011;64313;51.018;13.742;2023-07-20T02:43:11;6.85;;;2.28;;
75698;SDS011;64313;51.018;13.742;2023-07-20T02:45:39;5.38;;;2.00;;
75698;SDS011;64313;51.018;13.742;2023-07-20T02:48:05;4.93;;;1.90;;
75698;SDS011;64313;51.018;13.742;2023-07-20T02:50:33;5.30;;;1.70;;
75698;SDS011;64313;51.018;13.742;2023-07-20T02:52:59;4.18;;;1.58;;
75698;SDS011;64313;51.018;13.742;2023-07-20T02:55:25;5.28;;;1.80;;
75698;SDS011;64313;51.018;13.742;2023-07-20T02:57:50;4.88;;;2.00;;
75698;SDS011;64313;51.018;13.742;2023-07-20T03:00:16;5.10;;;1.90;;
75698;SDS011;64313;51.018;13.742;2023-07-20T03:02:41;4.45;;;1.83;;
75698;SDS011;64313;51.018;13.742;2023-07-20T03:05:07;4.32;;;1.75;;
75698;SDS011;64313;51.018;13.742;2023-07-20T03:07:33;4.28;;;1.77;;
75698;SDS011;64313;51.018;13.742;2023-07-20T03:09:58;5.47;;;1.98;;
75698;SDS011;64313;51.018;13.742;2023-07-20T03:12:25;5.05;;;1.92;;
75698;SDS011;64313;51.018;13.742;2023-07-20T03:14:50;5.15;;;1.90;;
75698;SDS011;64313;51.018;13.742;2023-07-20T03:17:16;5.20;;;2.30;;
75698;SDS011;64313;51.018;13.742;2023-07-20T03:19:44;5.18;;;1.92;;
75698;SDS011;64313;51.018;13.742;2023-07-20T03:22:10;4.60;;;1.80;;
75698;SDS011;64313;51.018;13.742;2023-07-20T03:24:35;5.47;;;1.98;;
75698;SDS011;64313;51.018;13.742;2023-07-20T03:27:01;4.93;;;1.80;;
75698;SDS011;64313;51.018;13.742;2023-07-20T03:29:26;6.20;;;2.20;;
75698;SDS011;64313;51.018;13.742;2023-07-20T03:31:51;4.85;;;1.65;;
75698;SDS011;64313;51.018;13.742;2023-07-20T03:34:17;4.55;;;1.90;;
75698;SDS011;64313;51.018;13.742;2023-07-20T03:36:42;4.95;;;2.03;;
75698;SDS011;64313;51.018;13.742;2023-07-20T03:39:08;6.97;;;2.25;;
75698;SDS011;64313;51.018;13.742;2023-07-20T03:41:33;6.80;;;2.15;;
75698;SDS011;64313;51.018;13.742;2023-07-20T03:43:59;5.32;;;1.90;;
75698;SDS011;64313;51.018;13.742;2023-07-20T03:46:25;4.10;;;1.80;;
75698;SDS011;64313;51.018;13.742;2023-07-20T03:48:50;3.97;;;1.77;;
75698;SDS011;64313;51.018;13.742;2023-07-20T03:51:16;4.78;;;2.00;;
75698;SDS011;64313;51.018;13.742;2023-07-20T03:53:41;5.60;;;2.22;;
75698;SDS011;64313;51.018;13.742;2023-07-20T03:56:07;5.45;;;2.10;;
75698;SDS011;64313;51.018;13.742;2023-07-20T03:58:32;5.85;;;1.77;;
75698;SDS011;64313;51.018;13.742;2023-07-20T04:00:58;5.63;;;2.17;;
75698;SDS011;64313;51.018;13.742;2023-07-20T04:03:23;4.90;;;2.05;;
75698;SDS011;64313;51.018;13.742;2023-07-20T04:05:50;4.15;;;1.90;;
75698;SDS011;64313;51.018;13.742;2023-07-20T04:08:15;6.45;;;2.30;;
75698;SDS011;64313;51.018;13.742;2023-07-20T04:10:44;7.97;;;2.10;;
75698;SDS011;64313;51.018;13.742;2023-07-20T04:13:10;6.53;;;2.13;;
75698;SDS011;64313;51.018;13.742;2023-07-20T04:15:35;6.30;;;2.05;;
75698;SDS011;64313;51.018;13.742;2023-07-20T04:18:01;5.78;;;2.20;;
75698;SDS011;64313;51.018;13.742;2023-07-20T04:20:26;4.65;;;1.98;;
75698;SDS011;64313;51.018;13.742;2023-07-20T04:22:52;6.47;;;1.95;;
75698;SDS011;64313;51.018;13.742;2023-07-20T04:25:19;4.68;;;1.75;;
75698;SDS011;64313;51.018;13.742;2023-07-20T04:27:44;8.00;;;2.10;;
75698;SDS011;64313;51.018;13.742;2023-07-20T04:30:10;5.55;;;1.90;;
75698;SDS011;64313;51.018;13.742;2023-07-20T04:32:37;5.60;;;2.20;;
75698;SDS011;64313;51.018;13.742;2023-07-20T04:35:06;7.07;;;2.58;;
75698;SDS011;64313;51.018;13.742;2023-07-20T04:37:37;5.53;;;2.60;;
75698;SDS011;64313;51.018;13.742;2023-07-20T04:40:03;5.80;;;2.80;;
75698;SDS011;64313;51.018;13.742;2023-07-20T04:42:29;7.18;;;2.78;;
75698;SDS011;64313;51.018;13.742;2023-07-20T04:44:55;5.47;;;2.53;;
75698;SDS011;64313;51.018;13.742;2023-07-20T04:47:20;7.70;;;2.70;;
75698;SDS011;64313;51.018;13.742;2023-07-20T04:49:47;4.50;;;2.33;;
75698;SDS011;64313;51.018;13.742;2023-07-20T04:52:13;5.47;;;2.63;;
75698;SDS011;64313;51.018;13.742;2023-07-20T04:54:38;5.93;;;2.80;;
75698;SDS011;64313;51.018;13.742;2023-07-20T04:57:05;5.78;;;2.80;;
75698;SDS011;64313;51.018;13.742;2023-07-20T04:59:38;6.18;;;2.83;;
75698;SDS011;64313;51.018;13.742;2023-07-20T05:02:03;6.90;;;3.05;;
75698;SDS011;64313;51.018;13.742;2023-07-20T05:04:29;8.00;;;2.83;;
75698;SDS011;64313;51.018;13.742;2023-07-20T05:06:54;6.38;;;2.72;;
75698;SDS011;64313;51.018;13.742;2023-07-20T05:09:19;6.50;;;3.15;;
75698;SDS011;64313;51.018;13.742;2023-07-20T05:11:45;9.02;;;3.80;;
75698;SDS011;64313;51.018;13.742;2023-07-20T05:14:12;7.05;;;3.25;;
75698;SDS011;64313;51.018;13.742;2023-07-20T05:16:37;7.57;;;3.20;;
75698;SDS011;64313;51.018;13.742;2023-07-20T05:19:04;7.82;;;3.63;;
75698;SDS011;64313;51.018;13.742;2023-07-20T05:21:30;9.38;;;3.50;;
75698;SDS011;64313;51.018;13.742;2023-07-20T05:23:55;9.57;;;4.00;;
75698;SDS011;64313;51.018;13.742;2023-07-20T05:26:22;6.75;;;3.22;;
75698;SDS011;64313;51.018;13.742;2023-07-20T05:28:47;6.07;;;2.80;;
75698;SDS011;64313;51.018;13.742;2023-07-20T05:31:12;6.55;;;2.40;;
75698;SDS011;64313;51.018;13.742;2023-07-20T05:33:38;5.80;;;2.38;;
75698;SDS011;64313;51.018;13.742;2023-07-20T05:36:03;8.35;;;3.40;;
75698;SDS011;64313;51.018;13.742;2023-07-20T05:38:29;5.70;;;2.60;;
75698;SDS011;64313;51.018;13.742;2023-07-20T05:40:58;5.03;;;2.22;;
75698;SDS011;64313;51.018;13.742;2023-07-20T05:43:26;4.93;;;2.17;;
75698;SDS011;64313;51.018;13.742;2023-07-20T05:45:51;6.18;;;2.30;;
75698;SDS011;64313;51.018;13.742;2023-07-20T05:48:16;5.95;;;2.13;;
75698;SDS011;64313;51.018;13.742;2023-07-20T05:50:42;4.63;;;2.03;;
75698;SDS011;64313;51.018;13.742;2023-07-20T05:53:08;5.50;;;2.05;;
75698;SDS011;64313;51.018;13.742;2023-07-20T05:55:34;5.70;;;2.08;;
75698;SDS011;64313;51.018;13.742;2023-07-20T05:57:59;5.45;;;2.10;;
75698;SDS011;64313;51.018;13.742;2023-07-20T06:00:26;4.93;;;2.10;;
75698;SDS011;64313;51.018;13.742;2023-07-20T06:02:52;5.75;;;2.00;;
75698;SDS011;64313;51.018;13.742;2023-07-20T06:05:18;5.38;;;2.22;;
75698;SDS011;64313;51.018;13.742;2023-07-20T06:07:45;5.50;;;2.20;;
75698;SDS011;64313;51.018;13.742;2023-07-20T06:10:10;6.28;;;2.33;;
75698;SDS011;64313;51.018;13.742;2023-07-20T06:12:36;6.13;;;2.40;;
75698;SDS011;64313;51.018;13.742;2023-07-20T06:15:02;6.38;;;2.58;;
75698;SDS011;64313;51.018;13.742;2023-07-20T06:17:29;7.53;;;2.50;;
75698;SDS011;64313;51.018;13.742;2023-07-20T06:19:54;6.63;;;2.58;;
75698;SDS011;64313;51.018;13.742;2023-07-20T06:22:19;7.30;;;2.85;;
75698;SDS011;64313;51.018;13.742;2023-07-20T06:24:45;8.15;;;3.22;;
75698;SDS011;64313;51.018;13.742;2023-07-20T06:27:10;7.88;;;3.08;;
75698;SDS011;64313;51.018;13.742;2023-07-20T06:29:37;7.53;;;3.00;;
75698;SDS011;64313;51.018;13.742;2023-07-20T06:32:03;6.72;;;3.60;;
75698;SDS011;64313;51.018;13.742;2023-07-20T06:34:28;6.00;;;2.72;;
75698;SDS011;64313;51.018;13.742;2023-07-20T06:36:55;6.78;;;2.80;;
75698;SDS011;64313;51.018;13.742;2023-07-20T06:39:20;5.63;;;2.63;;
75698;SDS011;64313;51.018;13.742;2023-07-20T06:41:47;5.78;;;2.53;;
75698;SDS011;64313;51.018;13.742;2023-07-20T06:44:12;7.63;;;2.47;;
75698;SDS011;64313;51.018;13.742;2023-07-20T06:46:38;6.13;;;2.28;;
75698;SDS011;64313;51.018;13.742;2023-07-20T06:49:05;5.82;;;2.22;;
75698;SDS011;64313;51.018;13.742;2023-07-20T06:51:31;5.00;;;2.30;;
75698;SDS011;64313;51.018;13.742;2023-07-20T06:53:56;6.45;;;2.40;;
75698;SDS011;64313;51.018;13.742;2023-07-20T06:56:22;6.78;;;2.95;;
75698;SDS011;64313;51.018;13.742;2023-07-20T06:58:47;5.95;;;2.08;;
75698;SDS011;64313;51.018;13.742;2023-07-20T07:01:13;5.03;;;1.95;;
75698;SDS011;64313;51.018;13.742;2023-07-20T07:03:38;4.90;;;2.40;;
75698;SDS011;64313;51.018;13.742;2023-07-20T07:06:04;4.68;;;2.13;;
75698;SDS011;64313;51.018;13.742;2023-07-20T07:08:29;5.18;;;1.95;;
75698;SDS011;64313;51.018;13.742;2023-07-20T07:10:55;4.72;;;1.98;;
75698;SDS011;64313;51.018;13.742;2023-07-20T07:13:20;7.57;;;2.28;;
75698;SDS011;64313;51.018;13.742;2023-07-20T07:15:45;4.90;;;1.70;;
75698;SDS011;64313;51.018;13.742;2023-07-20T07:18:11;6.13;;;2.03;;
75698;SDS011;64313;51.018;13.742;2023-07-20T07:20:36;5.97;;;1.90;;
75698;SDS011;64313;51.018;13.742;2023-07-20T07:23:02;4.03;;;1.83;;
75698;SDS011;64313;51.018;13.742;2023-07-20T07:25:28;3.95;;;1.65;;
75698;SDS011;64313;51.018;13.742;2023-07-20T07:27:53;6.85;;;1.85;;
75698;SDS011;64313;51.018;13.742;2023-07-20T07:30:20;4.43;;;1.95;;
75698;SDS011;64313;51.018;13.742;2023-07-20T07:32:46;6.82;;;2.65;;
75698;SDS011;64313;51.018;13.742;2023-07-20T07:35:11;6.93;;;2.30;;
75698;SDS011;64313;51.018;13.742;2023-07-20T07:37:37;5.35;;;2.08;;
75698;SDS011;64313;51.018;13.742;2023-07-20T07:40:05;4.10;;;2.05;;
75698;SDS011;64313;51.018;13.742;2023-07-20T07:42:31;5.90;;;2.10;;
75698;SDS011;64313;51.018;13.742;2023-07-20T07:44:57;5.47;;;1.98;;
75698;SDS011;64313;51.018;13.742;2023-07-20T07:47:22;5.00;;;2.30;;
75698;SDS011;64313;51.018;13.742;2023-07-20T07:49:47;3.70;;;1.80;;
75698;SDS011;64313;51.018;13.742;2023-07-20T07:52:13;5.15;;;2.45;;
75698;SDS011;64313;51.018;13.742;2023-07-20T07:54:39;4.72;;;2.30;;
75698;SDS011;64313;51.018;13.742;2023-07-20T07:57:04;4.88;;;2.58;;
75698;SDS011;64313;51.018;13.742;2023-07-20T07:59:30;5.28;;;3.00;;
75698;SDS011;64313;51.018;13.742;2023-07-20T08:02:00;5.50;;;2.30;;
75698;SDS011;64313;51.018;13.742;2023-07-20T08:04:25;4.82;;;2.08;;
75698;SDS011;64313;51.018;13.742;2023-07-20T08:06:51;4.68;;;2.72;;
75698;SDS011;64313;51.018;13.742;2023-07-20T08:09:17;4.80;;;2.38;;
75698;SDS011;64313;51.018;13.742;2023-07-20T08:11:42;4.88;;;2.92;;
75698;SDS011;64313;51.018;13.742;2023-07-20T08:14:07;5.75;;;2.60;;
75698;SDS011;64313;51.018;13.742;2023-07-20T08:16:33;5.45;;;3.10;;
75698;SDS011;64313;51.018;13.742;2023-07-20T08:18:58;5.53;;;2.53;;
75698;SDS011;64313;51.018;13.742;2023-07-20T08:21:25;5.78;;;2.05;;
75698;SDS011;64313;51.018;13.742;2023-07-20T08:23:51;4.63;;;2.40;;
75698;SDS011;64313;51.018;13.742;2023-07-20T08:26:16;4.60;;;2.25;;
75698;SDS011;64313;51.018;13.742;2023-07-20T08:28:43;3.85;;;1.95;;
75698;SDS011;64313;51.018;13.742;2023-07-20T08:31:09;4.20;;;2.25;;
75698;SDS011;64313;51.018;13.742;2023-07-20T08:33:34;4.35;;;2.05;;
75698;SDS011;64313;51.018;13.742;2023-07-20T08:36:00;4.93;;;2.20;;
75698;SDS011;64313;51.018;13.742;2023-07-20T08:38:27;6.93;;;2.47;;
75698;SDS011;64313;51.018;13.742;2023-07-20T08:40:52;4.45;;;2.00;;
75698;SDS011;64313;51.018;13.742;2023-07-20T08:43:22;4.53;;;2.13;;
75698;SDS011;64313;51.018;13.742;2023-07-20T08:45:51;4.78;;;2.20;;
75698;SDS011;64313;51.018;13.742;2023-07-20T08:48:19;4.43;;;2.20;;
75698;SDS011;64313;51.018;13.742;2023-07-20T08:50:46;5.07;;;2.67;;
75698;SDS011;64313;51.018;13.742;2023-07-20T08:53:14;4.13;;;2.00;;
75698;SDS011;64313;51.018;13.742;2023-07-20T08:55:43;6.70;;;1.95;;
75698;SDS011;64313;51.018;13.742;2023-07-20T08:58:12;4.50;;;2.20;;
75698;SDS011;64313;51.018;13.742;2023-07-20T09:00:40;5.03;;;2.00;;
75698;SDS011;64313;51.018;13.742;2023-07-20T09:03:06;4.25;;;2.15;;
75698;SDS011;64313;51.018;13.742;2023-07-20T09:05:32;5.45;;;2.40;;
75698;SDS011;64313;51.018;13.742;2023-07-20T09:07:57;3.60;;;1.80;;
75698;SDS011;64313;51.018;13.742;2023-07-20T09:10:23;4.55;;;1.88;;
75698;SDS011;64313;51.018;13.742;2023-07-20T09:12:49;4.95;;;2.20;;
75698;SDS011;64313;51.018;13.742;2023-07-20T09:15:15;4.28;;;2.42;;
75698;SDS011;64313;51.018;13.742;2023-07-20T09:17:47;4.38;;;1.98;;
75698;SDS011;64313;51.018;13.742;2023-07-20T09:20:16;4.20;;;2.08;;
75698;SDS011;64313;51.018;13.742;2023-07-20T09:22:43;4.15;;;1.88;;
75698;SDS011;64313;51.018;13.742;2023-07-20T09:25:13;4.10;;;2.17;;
75698;SDS011;64313;51.018;13.742;2023-07-20T09:27:40;4.00;;;2.10;;
75698;SDS011;64313;51.018;13.742;2023-07-20T09:30:07;7.07;;;2.08;;
75698;SDS011;64313;51.018;13.742;2023-07-20T09:32:40;4.70;;;2.22;;
75698;SDS011;64313;51.018;13.742;2023-07-20T09:35:14;5.20;;;1.85;;
75698;SDS011;64313;51.018;13.742;2023-07-20T09:38:02;6.05;;;2.30;;
75698;SDS011;64313;51.018;13.742;2023-07-20T09:40:27;4.38;;;2.00;;
75698;SDS011;64313;51.018;13.742;2023-07-20T09:42:53;4.65;;;2.20;;
75698;SDS011;64313;51.018;13.742;2023-07-20T09:45:29;4.20;;;2.13;;
75698;SDS011;64313;51.018;13.742;2023-07-20T09:48:05;4.82;;;1.92;;
75698;SDS011;64313;51.018;13.742;2023-07-20T09:50:32;4.68;;;2.22;;
75698;SDS011;64313;51.018;13.742;2023-07-20T09:52:58;3.80;;;2.20;;
75698;SDS011;64313;51.018;13.742;2023-07-20T09:55:25;5.15;;;3.10;;
75698;SDS011;64313;51.018;13.742;2023-07-20T09:57:51;5.38;;;3.22;;
75698;SDS011;64313;51.018;13.742;2023-07-20T10:00:18;4.10;;;2.38;;
75698;SDS011;64313;51.018;13.742;2023-07-20T10:02:44;4.20;;;2.13;;
75698;SDS011;64313;51.018;13.742;2023-07-20T10:05:13;5.85;;;3.13;;
75698;SDS011;64313;51.018;13.742;2023-07-20T10:07:42;6.40;;;2.88;;
75698;SDS011;64313;51.018;13.742;2023-07-20T10:10:10;7.75;;;3.28;;
75698;SDS011;64313;51.018;13.742;2023-07-20T10:12:36;5.20;;;2.80;;
75698;SDS011;64313;51.018;13.742;2023-07-20T10:15:10;5.43;;;2.92;;
75698;SDS011;64313;51.018;13.742;2023-07-20T10:18:17;4.93;;;2.45;;
75698;SDS011;64313;51.018;13.742;2023-07-20T10:20:39;3.95;;;2.22;;
75698;SDS011;64313;51.018;13.742;2023-07-20T10:23:06;4.97;;;3.22;;
75698;SDS011;64313;51.018;13.742;2023-07-20T10:25:33;5.43;;;2.72;;
75698;SDS011;64313;51.018;13.742;2023-07-20T10:28:06;4.50;;;2.80;;
75698;SDS011;64313;51.018;13.742;2023-07-20T10:30:33;6.25;;;3.40;;
75698;SDS011;64313;51.018;13.742;2023-07-20T10:33:00;5.63;;;3.00;;
75698;SDS011;64313;51.018;13.742;2023-07-20T10:35:28;4.60;;;2.90;;
75698;SDS011;64313;51.018;13.742;2023-07-20T10:37:54;5.03;;;3.08;;
75698;SDS011;64313;51.018;13.742;2023-07-20T10:40:31;5.10;;;2.78;;
75698;SDS011;64313;51.018;13.742;2023-07-20T10:43:04;6.28;;;3.85;;
75698;SDS011;64313;51.018;13.742;2023-07-20T10:45:48;7.07;;;3.20;;
75698;SDS011;64313;51.018;13.742;2023-07-20T10:48:15;6.20;;;3.60;;
75698;SDS011;64313;51.018;13.742;2023-07-20T10:53:35;7.25;;;3.00;;
75698;SDS011;64313;51.018;13.742;2023-07-20T10:56:14;5.57;;;2.60;;
75698;SDS011;64313;51.018;13.742;2023-07-20T10:58:44;4.15;;;2.20;;
75698;SDS011;64313;51.018;13.742;2023-07-20T11:01:11;4.72;;;2.17;;
75698;SDS011;64313;51.018;13.742;2023-07-20T11:03:40;4.20;;;2.20;;
75698;SDS011;64313;51.018;13.742;2023-07-20T11:08:55;3.88;;;2.33;;
75698;SDS011;64313;51.018;13.742;2023-07-20T11:11:25;4.40;;;2.65;;
75698;SDS011;64313;51.018;13.742;2023-07-20T11:13:58;6.72;;;2.70;;
75698;SDS011;64313;51.018;13.742;2023-07-20T11:19:14;6.13;;;2.75;;
75698;SDS011;64313;51.018;13.742;2023-07-20T11:21:55;5.35;;;2.40;;
75698;SDS011;64313;51.018;13.742;2023-07-20T11:24:22;4.40;;;2.40;;
75698;SDS011;64313;51.018;13.742;2023-07-20T11:29:15;4.63;;;2.90;;
75698;SDS011;64313;51.018;13.742;2023-07-20T11:31:42;5.60;;;2.83;;
75698;SDS011;64313;51.018;13.742;2023-07-20T11:34:10;3.90;;;2.28;;
75698;SDS011;64313;51.018;13.742;2023-07-20T11:36:39;5.07;;;3.20;;
75698;SDS011;64313;51.018;13.742;2023-07-20T11:39:06;4.22;;;2.75;;
75698;SDS011;64313;51.018;13.742;2023-07-20T11:41:32;6.38;;;2.70;;
75698;SDS011;64313;51.018;13.742;2023-07-20T11:44:17;5.90;;;3.10;;
75698;SDS011;64313;51.018;13.742;2023-07-20T11:46:44;7.65;;;3.55;;
75698;SDS011;64313;51.018;13.742;2023-07-20T11:49:10;5.53;;;2.60;;
75698;SDS011;64313;51.018;13.742;2023-07-20T11:51:37;6.03;;;3.10;;
75698;SDS011;64313;51.018;13.742;2023-07-20T11:54:09;4.88;;;2.88;;
75698;SDS011;64313;51.018;13.742;2023-07-20T11:56:35;4.68;;;2.88;;
75698;SDS011;64313;51.018;13.742;2023-07-20T11:59:00;4.85;;;3.10;;
75698;SDS011;64313;51.018;13.742;2023-07-20T12:01:28;5.30;;;2.97;;
75698;SDS011;64313;51.018;13.742;2023-07-20T12:03:56;5.40;;;2.90;;
75698;SDS011;64313;51.018;13.742;2023-07-20T12:06:23;3.95;;;2.33;;
75698;SDS011;64313;51.018;13.742;2023-07-20T12:08:50;4.10;;;2.30;;
75698;SDS011;64313;51.018;13.742;2023-07-20T12:13:57;4.75;;;2.90;;
75698;SDS011;64313;51.018;13.742;2023-07-20T12:16:26;5.05;;;2.95;;
75698;SDS011;64313;51.018;13.742;2023-07-20T12:18:58;5.38;;;2.75;;
75698;SDS011;64313;51.018;13.742;2023-07-20T12:21:31;5.63;;;3.63;;
75698;SDS011;64313;51.018;13.742;2023-07-20T12:23:58;4.82;;;2.72;;
75698;SDS011;64313;51.018;13.742;2023-07-20T12:26:24;4.97;;;2.97;;
75698;SDS011;64313;51.018;13.742;2023-07-20T12:28:51;5.05;;;2.38;;
75698;SDS011;64313;51.018;13.742;2023-07-20T12:31:17;4.63;;;2.30;;
75698;SDS011;64313;51.018;13.742;2023-07-20T12:33:43;4.28;;;2.40;;
75698;SDS011;64313;51.018;13.742;2023-07-20T12:36:09;4.72;;;2.47;;
75698;SDS011;64313;51.018;13.742;2023-07-20T12:38:35;4.55;;;2.13;;
75698;SDS011;64313;51.018;13.742;2023-07-20T12:41:01;5.38;;;2.97;;
75698;SDS011;64313;51.018;13.742;2023-07-20T12:43:27;4.30;;;2.50;;
75698;SDS011;64313;51.018;13.742;2023-07-20T12:45:53;4.72;;;2.45;;
75698;SDS011;64313;51.018;13.742;2023-07-20T12:48:20;4.43;;;2.42;;
75698;SDS011;64313;51.018;13.742;2023-07-20T12:50:46;5.07;;;3.22;;
75698;SDS011;64313;51.018;13.742;2023-07-20T12:53:12;4.50;;;2.63;;
75698;SDS011;64313;51.018;13.742;2023-07-20T12:55:37;4.90;;;2.30;;
75698;SDS011;64313;51.018;13.742;2023-07-20T12:58:04;5.10;;;2.88;;
75698;SDS011;64313;51.018;13.742;2023-07-20T13:00:29;6.40;;;2.90;;
75698;SDS011;64313;51.018;13.742;2023-07-20T13:02:54;4.85;;;2.53;;
75698;SDS011;64313;51.018;13.742;2023-07-20T13:05:20;5.10;;;2.28;;
75698;SDS011;64313;51.018;13.742;2023-07-20T13:07:45;3.78;;;2.10;;
75698;SDS011;64313;51.018;13.742;2023-07-20T13:10:11;4.93;;;2.20;;
75698;SDS011;64313;51.018;13.742;2023-07-20T13:12:36;5.80;;;2.00;;
75698;SDS011;64313;51.018;13.742;2023-07-20T13:15:03;4.13;;;1.85;;
75698;SDS011;64313;51.018;13.742;2023-07-20T13:17:34;3.60;;;1.95;;
75698;SDS011;64313;51.018;13.742;2023-07-20T13:20:01;3.83;;;1.85;;
75698;SDS011;64313;51.018;13.742;2023-07-20T13:22:31;3.40;;;1.67;;
75698;SDS011;64313;51.018;13.742;2023-07-20T13:24:57;4.95;;;2.10;;
75698;SDS011;64313;51.018;13.742;2023-07-20T13:27:22;4.07;;;1.92;;
75698;SDS011;64313;51.018;13.742;2023-07-20T13:29:48;3.80;;;1.88;;
75698;SDS011;64313;51.018;13.742;2023-07-20T13:32:16;3.50;;;1.60;;
75698;SDS011;64313;51.018;13.742;2023-07-20T13:34:43;4.28;;;2.10;;
75698;SDS011;64313;51.018;13.742;2023-07-20T13:37:13;3.25;;;1.60;;
75698;SDS011;64313;51.018;13.742;2023-07-20T13:39:38;3.40;;;1.58;;
75698;SDS011;64313;51.018;13.742;2023-07-20T13:42:04;3.45;;;1.52;;
75698;SDS011;64313;51.018;13.742;2023-07-20T13:44:30;4.10;;;1.67;;
75698;SDS011;64313;51.018;13.742;2023-07-20T13:46:57;3.45;;;1.58;;
75698;SDS011;64313;51.018;13.742;2023-07-20T13:49:22;3.67;;;1.83;;
75698;SDS011;64313;51.018;13.742;2023-07-20T13:51:48;4.43;;;1.70;;
75698;SDS011;64313;51.018;13.742;2023-07-20T13:54:14;4.85;;;1.60;;
75698;SDS011;64313;51.018;13.742;2023-07-20T13:56:40;3.30;;;1.42;;
75698;SDS011;64313;51.018;13.742;2023-07-20T13:59:05;2.80;;;1.40;;
75698;SDS011;64313;51.018;13.742;2023-07-20T14:01:33;4.20;;;1.50;;
75698;SDS011;64313;51.018;13.742;2023-07-20T14:04:00;2.85;;;1.40;;
75698;SDS011;64313;51.018;13.742;2023-07-20T14:06:31;2.58;;;1.25;;
75698;SDS011;64313;51.018;13.742;2023-07-20T14:11:24;3.20;;;1.38;;
75698;SDS011;64313;51.018;13.742;2023-07-20T14:13:51;2.47;;;1.30;;
75698;SDS011;64313;51.018;13.742;2023-07-20T14:16:23;3.90;;;1.42;;
75698;SDS011;64313;51.018;13.742;2023-07-20T14:18:49;3.35;;;1.30;;
75698;SDS011;64313;51.018;13.742;2023-07-20T14:21:15;2.78;;;1.20;;
75698;SDS011;64313;51.018;13.742;2023-07-20T14:23:45;2.97;;;1.05;;
75698;SDS011;64313;51.018;13.742;2023-07-20T14:26:11;3.50;;;1.20;;
75698;SDS011;64313;51.018;13.742;2023-07-20T14:28:37;2.67;;;1.10;;
75698;SDS011;64313;51.018;13.742;2023-07-20T14:31:03;2.75;;;1.20;;
75698;SDS011;64313;51.018;13.742;2023-07-20T14:33:28;3.10;;;1.27;;
75698;SDS011;64313;51.018;13.742;2023-07-20T14:35:53;2.80;;;1.20;;
75698;SDS011;64313;51.018;13.742;2023-07-20T14:38:19;3.60;;;1.05;;
75698;SDS011;64313;51.018;13.742;2023-07-20T14:40:44;3.08;;;1.17;;
75698;SDS011;64313;51.018;13.742;2023-07-20T14:43:10;3.80;;;1.20;;
75698;SDS011;64313;51.018;13.742;2023-07-20T14:45:36;2.88;;;1.08;;
75698;SDS011;64313;51.018;13.742;2023-07-20T14:48:03;2.42;;;1.10;;
75698;SDS011;64313;51.018;13.742;2023-07-20T14:50:28;2.67;;;1.20;;